createdAt,value
2019-03-17T00:01:32.697Z,62.31
2019-03-17T00:04:00.942Z,62.17
2019-03-17T00:06:29.163Z,62.38
2019-03-17T00:08:57.401Z,62.32
2019-03-17T00:11:25.618Z,62.32
2019-03-17T00:13:53.852Z,62.11
2019-03-17T00:16:22.090Z,62.46
2019-03-17T00:18:50.304Z,62.23
2019-03-17T00:21:18.527Z,62.38
2019-03-17T00:23:46.738Z,62.17
2019-03-17T00:26:14.944Z,62.16
2019-03-17T00:28:44.356Z,62.08
2019-03-17T00:31:23.133Z,62.26
2019-03-17T00:33:42.724Z,62.32
2019-03-17T00:36:10.944Z,61.95
2019-03-17T00:38:39.151Z,62.34
2019-03-17T00:41:07.469Z,62.11
2019-03-17T00:43:36.344Z,62.57
2019-03-17T00:46:04.569Z,62.08
2019-03-17T00:48:32.783Z,62.14
2019-03-17T00:51:01.008Z,62.22
2019-03-17T00:53:29.228Z,61.88
2019-03-17T00:55:57.435Z,62.12
2019-03-17T00:58:25.653Z,62.06
2019-03-17T01:00:53.857Z,62.17
2019-03-17T01:03:22.082Z,61.96
2019-03-17T01:05:50.293Z,61.78
2019-03-17T01:08:18.539Z,62.36
2019-03-17T01:10:46.741Z,62.25
2019-03-17T01:13:14.952Z,62.31
2019-03-17T01:15:43.167Z,62.40
2019-03-17T01:18:11.383Z,62.62
2019-03-17T01:20:39.599Z,62.46
2019-03-17T01:23:07.839Z,62.40
2019-03-17T01:25:36.650Z,62.43
2019-03-17T01:28:04.873Z,63.11
2019-03-17T01:30:33.081Z,62.72
2019-03-17T01:33:01.315Z,62.80
2019-03-17T01:35:32.423Z,62.77
2019-03-17T01:37:59.471Z,62.49
2019-03-17T01:40:27.684Z,62.53
2019-03-17T01:42:55.893Z,62.56
2019-03-17T01:45:24.104Z,62.83
2019-03-17T01:47:52.342Z,62.80
2019-03-17T01:50:20.558Z,62.49
2019-03-17T01:52:48.773Z,62.49
2019-03-17T01:55:17.002Z,62.32
2019-03-17T01:57:45.234Z,62.66
2019-03-17T02:00:13.816Z,62.80
2019-03-17T02:02:42.026Z,62.57
2019-03-17T02:05:21.292Z,62.75
2019-03-17T02:07:40.175Z,62.76
2019-03-17T02:10:08.871Z,62.90
2019-03-17T02:12:37.084Z,62.97
2019-03-17T02:15:07.334Z,63.04
2019-03-17T02:17:35.544Z,62.79
2019-03-17T02:20:05.172Z,62.62
2019-03-17T02:22:33.343Z,62.58
2019-03-17T02:25:01.559Z,62.86
2019-03-17T02:27:29.772Z,62.86
2019-03-17T02:29:57.980Z,62.71
2019-03-17T02:32:26.199Z,62.76
2019-03-17T02:34:54.410Z,62.65
2019-03-17T02:37:22.636Z,62.78
2019-03-17T02:39:50.873Z,62.75
2019-03-17T02:42:19.058Z,62.67
2019-03-17T02:44:47.300Z,63.00
2019-03-17T02:47:15.514Z,62.79
2019-03-17T02:49:43.722Z,62.81
2019-03-17T02:52:11.936Z,62.76
2019-03-17T02:54:40.156Z,62.47
2019-03-17T02:57:08.366Z,62.68
2019-03-17T02:59:37.012Z,62.79
2019-03-17T03:02:05.225Z,62.71
2019-03-17T03:04:33.444Z,62.66
2019-03-17T03:07:01.665Z,62.96
2019-03-17T03:09:29.897Z,64.09
2019-03-17T03:11:58.116Z,65.24
2019-03-17T03:14:26.328Z,65.67
2019-03-17T03:16:54.559Z,66.03
2019-03-17T03:19:22.773Z,66.18
2019-03-17T03:21:50.986Z,66.02
2019-03-17T03:24:19.211Z,66.68
2019-03-17T03:26:47.431Z,67.01
2019-03-17T03:29:15.627Z,67.33
2019-03-17T03:31:43.864Z,67.96
2019-03-17T03:34:12.089Z,67.48
2019-03-17T03:36:40.291Z,67.76
2019-03-17T03:39:08.523Z,67.77
2019-03-17T03:41:37.319Z,67.89
2019-03-17T03:44:05.533Z,68.64
2019-03-17T03:46:33.762Z,69.07
2019-03-17T03:49:01.997Z,69.72
2019-03-17T03:51:30.235Z,69.59
2019-03-17T03:53:58.471Z,70.27
2019-03-17T03:56:26.670Z,71.23
2019-03-17T03:58:54.921Z,71.60
2019-03-17T04:01:23.122Z,71.91
2019-03-17T04:03:51.332Z,72.77
2019-03-17T04:06:26.534Z,72.49
2019-03-17T04:08:49.531Z,73.38
2019-03-17T04:11:17.740Z,72.70
2019-03-17T04:13:45.962Z,73.60
2019-03-17T04:16:14.180Z,72.76
2019-03-17T04:18:42.398Z,73.27
2019-03-17T04:21:10.645Z,72.35
2019-03-17T04:23:38.860Z,72.76
2019-03-17T04:26:07.413Z,72.33
2019-03-17T04:28:35.628Z,72.14
2019-03-17T04:31:03.837Z,70.98
2019-03-17T04:33:32.057Z,70.27
2019-03-17T04:36:00.654Z,69.64
2019-03-17T04:38:28.860Z,69.27
2019-03-17T04:40:57.090Z,68.95
2019-03-17T04:43:25.374Z,68.49
2019-03-17T04:45:53.597Z,68.51
2019-03-17T04:48:21.815Z,67.48
2019-03-17T04:50:50.032Z,67.30
2019-03-17T04:53:18.326Z,66.55
2019-03-17T04:55:46.623Z,66.26
2019-03-17T04:58:14.842Z,66.43
2019-03-17T05:00:43.070Z,65.62
2019-03-17T05:03:11.286Z,65.58
2019-03-17T05:05:39.493Z,65.50
2019-03-17T05:08:07.707Z,65.93
2019-03-17T05:10:35.913Z,66.70
2019-03-17T05:13:04.134Z,67.01
2019-03-17T05:15:32.349Z,68.06
2019-03-17T05:18:00.564Z,68.40
2019-03-17T05:20:28.784Z,67.78
2019-03-17T05:22:57.004Z,67.72
2019-03-17T05:25:25.223Z,68.35
2019-03-17T05:27:53.471Z,68.35
2019-03-17T05:30:21.685Z,68.95
2019-03-17T05:32:49.910Z,69.03
2019-03-17T05:35:18.149Z,69.10
2019-03-17T05:37:46.361Z,70.17
2019-03-17T05:40:14.577Z,69.55
2019-03-17T05:42:42.792Z,70.19
2019-03-17T05:45:11.018Z,70.81
2019-03-17T05:47:39.227Z,70.58
2019-03-17T05:50:09.288Z,70.81
2019-03-17T05:52:37.856Z,71.42
2019-03-17T05:55:08.308Z,70.85
2019-03-17T05:57:36.527Z,71.20
2019-03-17T06:00:07.845Z,71.27
2019-03-17T06:02:36.077Z,71.50
2019-03-17T06:05:05.736Z,71.87
2019-03-17T06:07:33.945Z,71.02
2019-03-17T06:10:02.365Z,71.55
2019-03-17T06:12:30.581Z,70.81
2019-03-17T06:14:58.798Z,71.68
2019-03-17T06:17:27.033Z,71.60
2019-03-17T06:19:55.245Z,70.66
2019-03-17T06:22:23.468Z,71.42
2019-03-17T06:24:51.679Z,71.76
2019-03-17T06:27:19.907Z,71.25
2019-03-17T06:29:48.115Z,71.90
2019-03-17T06:32:16.321Z,72.48
2019-03-17T06:34:44.529Z,72.28
2019-03-17T06:37:12.774Z,72.53
2019-03-17T06:39:40.972Z,72.97
2019-03-17T06:42:09.186Z,71.56
2019-03-17T06:44:38.158Z,68.53
2019-03-17T06:47:06.379Z,68.79
2019-03-17T06:49:34.582Z,68.29
2019-03-17T06:52:02.802Z,69.27
2019-03-17T06:54:31.003Z,69.07
2019-03-17T06:56:59.223Z,69.20
2019-03-17T06:59:27.426Z,70.41
2019-03-17T07:01:55.627Z,71.34
2019-03-17T07:04:23.832Z,71.33
2019-03-17T07:06:52.062Z,72.01
2019-03-17T07:09:20.255Z,72.45
2019-03-17T07:11:48.471Z,72.97
2019-03-17T07:14:16.680Z,73.36
2019-03-17T07:16:44.893Z,74.56
2019-03-17T07:19:13.092Z,74.55
2019-03-17T07:21:41.291Z,75.38
2019-03-17T07:24:09.635Z,74.84
2019-03-17T07:26:38.397Z,74.22
2019-03-17T07:29:06.593Z,73.78
2019-03-17T07:31:34.826Z,74.75
2019-03-17T07:34:03.045Z,73.49
2019-03-17T07:36:31.246Z,73.21
2019-03-17T07:39:11.244Z,73.07
2019-03-17T07:41:29.415Z,71.16
2019-03-17T07:43:57.658Z,71.60
2019-03-17T07:46:26.037Z,72.22
2019-03-17T07:48:54.243Z,72.47
2019-03-17T07:51:22.446Z,72.34
2019-03-17T07:53:50.646Z,73.13
2019-03-17T07:56:19.068Z,72.45
2019-03-17T07:58:47.261Z,73.01
2019-03-17T08:01:15.473Z,73.77
2019-03-17T08:03:43.681Z,73.46
2019-03-17T08:06:11.886Z,72.95
2019-03-17T08:08:40.225Z,74.00
2019-03-17T08:11:08.692Z,73.01
2019-03-17T08:13:36.893Z,72.77
2019-03-17T08:16:05.094Z,73.67
2019-03-17T08:18:33.304Z,73.56
2019-03-17T08:21:01.538Z,73.48
2019-03-17T08:23:29.756Z,73.79
2019-03-17T08:25:57.964Z,72.65
2019-03-17T08:28:26.198Z,73.25
2019-03-17T08:30:54.456Z,72.62
2019-03-17T08:33:22.660Z,72.27
2019-03-17T08:35:50.889Z,73.13
2019-03-17T08:38:22.182Z,73.02
2019-03-17T08:40:49.015Z,72.88
2019-03-17T08:43:17.224Z,72.82
2019-03-17T08:45:45.433Z,72.81
2019-03-17T08:48:13.629Z,71.74
2019-03-17T08:50:41.874Z,72.26
2019-03-17T08:53:10.084Z,71.77
2019-03-17T08:55:39.022Z,72.46
2019-03-17T08:58:07.234Z,71.69
2019-03-17T09:00:35.439Z,72.56
2019-03-17T09:03:03.659Z,71.06
2019-03-17T09:05:31.868Z,70.24
2019-03-17T09:08:02.570Z,70.84
2019-03-17T09:10:30.842Z,69.87
2019-03-17T09:12:59.048Z,69.23
2019-03-17T09:15:28.736Z,69.84
2019-03-17T09:17:56.933Z,69.48
2019-03-17T09:20:26.940Z,69.33
2019-03-17T09:22:55.147Z,69.13
2019-03-17T09:25:23.351Z,69.02
2019-03-17T09:27:51.582Z,67.85
2019-03-17T09:30:19.784Z,67.57
2019-03-17T09:32:47.993Z,68.29
2019-03-17T09:35:16.195Z,68.04
2019-03-17T09:37:44.404Z,67.82
2019-03-17T09:40:13.845Z,67.85
2019-03-17T09:42:42.087Z,67.61
2019-03-17T09:45:11.860Z,67.18
2019-03-17T09:47:41.380Z,67.11
2019-03-17T09:50:18.884Z,67.31
2019-03-17T09:52:47.093Z,65.80
2019-03-17T09:55:15.309Z,66.24
2019-03-17T09:57:43.527Z,65.58
2019-03-17T10:00:21.720Z,65.37
2019-03-17T10:02:52.911Z,64.86
2019-03-17T10:05:23.124Z,64.49
2019-03-17T10:07:51.328Z,64.94
2019-03-17T10:10:23.861Z,64.65
2019-03-17T10:12:52.065Z,64.56
2019-03-17T10:15:20.618Z,64.87
2019-03-17T10:17:48.817Z,63.67
2019-03-17T10:20:19.335Z,63.50
2019-03-17T10:22:48.758Z,62.44
2019-03-17T10:25:49.335Z,61.82
2019-03-17T10:32:37.713Z,62.19
2019-03-17T10:35:05.998Z,61.52
2019-03-17T10:37:34.221Z,60.54
2019-03-17T10:40:02.432Z,59.41
2019-03-17T10:42:30.650Z,58.87
2019-03-17T10:44:58.855Z,58.42
2019-03-17T10:47:27.264Z,58.00
2019-03-17T10:49:55.478Z,57.91
2019-03-17T10:52:23.687Z,57.70
2019-03-17T10:54:51.908Z,57.82
2019-03-17T10:57:20.129Z,57.11
2019-03-17T10:59:48.327Z,56.95
2019-03-17T11:02:16.558Z,56.82
2019-03-17T11:04:44.789Z,55.67
2019-03-17T11:07:13.010Z,55.44
2019-03-17T11:09:41.210Z,55.35
2019-03-17T11:12:09.979Z,55.07
2019-03-17T11:14:38.285Z,54.23
2019-03-17T11:17:06.485Z,54.48
2019-03-17T11:19:34.705Z,53.77
2019-03-17T11:22:02.912Z,53.48
2019-03-17T11:24:31.291Z,52.01
2019-03-17T11:26:59.496Z,52.01
2019-03-17T11:29:27.701Z,51.51
2019-03-17T11:31:55.965Z,50.89
2019-03-17T11:34:24.178Z,49.70
2019-03-17T11:36:52.402Z,48.99
2019-03-17T11:39:20.609Z,49.21
2019-03-17T11:41:48.826Z,49.08
2019-03-17T11:44:17.023Z,49.15
2019-03-17T11:46:45.243Z,50.56
2019-03-17T11:49:13.467Z,52.66
2019-03-17T11:51:41.704Z,51.74
2019-03-17T11:54:10.396Z,53.12
2019-03-17T11:56:38.604Z,53.54
2019-03-17T11:59:06.828Z,53.85
2019-03-17T12:01:35.039Z,51.99
2019-03-17T12:04:03.256Z,51.84
2019-03-17T12:06:31.462Z,52.29
2019-03-17T12:08:59.675Z,49.27
2019-03-17T12:11:27.893Z,46.36
2019-03-17T12:13:56.116Z,47.02
2019-03-17T12:16:24.330Z,47.56
2019-03-17T12:18:52.543Z,48.30
2019-03-17T12:21:20.772Z,49.29
2019-03-17T12:23:49.013Z,50.17
2019-03-17T12:26:17.226Z,50.55
2019-03-17T12:28:45.468Z,51.24
2019-03-17T12:31:13.647Z,52.21
2019-03-17T12:33:41.878Z,52.69
2019-03-17T12:36:10.598Z,52.50
2019-03-17T12:38:38.805Z,53.28
2019-03-17T12:41:07.020Z,53.11
2019-03-17T12:43:35.243Z,52.82
2019-03-17T12:46:03.466Z,51.40
2019-03-17T12:48:31.692Z,50.97
2019-03-17T12:50:59.932Z,51.90
2019-03-17T12:53:28.134Z,49.77
2019-03-17T12:55:56.339Z,50.45
2019-03-17T12:58:24.543Z,49.35
2019-03-17T13:00:52.752Z,48.85
2019-03-17T13:03:20.964Z,48.10
2019-03-17T13:05:49.167Z,47.64
2019-03-17T13:08:17.395Z,46.99
2019-03-17T13:10:45.602Z,46.80
2019-03-17T13:13:13.851Z,46.44
2019-03-17T13:15:42.071Z,45.24
2019-03-17T13:18:10.856Z,45.58
2019-03-17T13:20:39.076Z,46.38
2019-03-17T13:23:07.275Z,46.54
2019-03-17T13:25:35.518Z,47.86
2019-03-17T13:28:03.723Z,48.82
2019-03-17T13:30:31.939Z,50.40
2019-03-17T13:33:00.150Z,50.92
2019-03-17T13:35:28.470Z,50.82
2019-03-17T13:37:56.693Z,51.03
2019-03-17T13:40:29.353Z,51.61
2019-03-17T13:42:54.953Z,51.94
2019-03-17T13:45:23.152Z,52.26
2019-03-17T13:47:53.071Z,53.06
2019-03-17T13:50:22.834Z,53.09
2019-03-17T13:52:51.047Z,51.82
2019-03-17T13:55:19.249Z,50.88
2019-03-17T13:57:50.718Z,51.55
2019-03-17T14:00:18.947Z,50.62
2019-03-17T14:02:47.165Z,50.44
2019-03-17T14:05:15.372Z,50.47
2019-03-17T14:07:43.599Z,50.79
2019-03-17T14:10:16.585Z,50.99
2019-03-17T14:12:44.797Z,51.70
2019-03-17T14:15:16.804Z,50.52
2019-03-17T14:17:45.044Z,50.06
2019-03-17T14:20:20.410Z,50.22
2019-03-17T14:22:47.431Z,50.10
2019-03-17T14:25:24.106Z,50.24
2019-03-17T14:27:52.327Z,50.94
2019-03-17T14:30:20.833Z,51.59
2019-03-17T14:32:49.038Z,52.41
2019-03-17T14:35:17.248Z,52.40
2019-03-17T14:37:45.490Z,53.17
2019-03-17T14:40:16.989Z,53.37
2019-03-17T14:42:46.773Z,54.39
2019-03-17T14:45:16.130Z,54.78
2019-03-17T14:47:44.401Z,54.72
2019-03-17T14:50:20.777Z,54.57
2019-03-17T14:52:49.002Z,52.91
2019-03-17T14:55:17.244Z,52.39
2019-03-17T14:57:45.438Z,52.84
2019-03-17T15:00:16.914Z,52.99
2019-03-17T15:02:45.460Z,52.65
2019-03-17T15:05:13.676Z,52.77
2019-03-17T15:07:41.897Z,52.77
2019-03-17T15:10:13.404Z,52.72
2019-03-17T15:12:41.619Z,52.78
2019-03-17T15:15:12.372Z,53.11
2019-03-17T15:17:41.653Z,57.00
2019-03-17T15:20:13.122Z,57.73
2019-03-17T15:22:41.623Z,58.28
2019-03-17T15:25:11.098Z,58.38
2019-03-17T15:27:41.650Z,59.13
2019-03-17T15:30:25.514Z,60.45
2019-03-17T15:32:53.746Z,61.40
2019-03-17T15:35:21.947Z,61.27
2019-03-17T15:37:50.148Z,61.83
2019-03-17T15:40:21.750Z,61.75
2019-03-17T15:42:50.019Z,61.98
2019-03-17T15:45:24.927Z,62.43
2019-03-17T15:47:53.130Z,61.86
2019-03-17T15:50:26.714Z,61.33
2019-03-17T15:52:54.934Z,60.45
2019-03-17T15:55:23.144Z,60.22
2019-03-17T15:57:51.344Z,59.61
2019-03-17T16:00:25.518Z,57.88
2019-03-17T16:02:50.643Z,57.88
2019-03-17T16:05:19.180Z,57.70
2019-03-17T16:07:47.633Z,58.11
2019-03-17T16:10:20.377Z,58.24
2019-03-17T16:12:48.858Z,56.65
2019-03-17T16:15:17.143Z,56.33
2019-03-17T16:17:45.347Z,54.19
2019-03-17T16:20:23.477Z,53.55
2019-03-17T16:22:51.754Z,53.90
2019-03-17T16:25:24.213Z,52.65
2019-03-17T16:27:52.429Z,51.37
2019-03-17T16:30:24.705Z,51.64
2019-03-17T16:32:52.945Z,51.39
2019-03-17T16:35:21.219Z,51.04
2019-03-17T16:37:49.436Z,51.38
2019-03-17T16:40:25.800Z,51.83
2019-03-17T16:42:54.281Z,52.54
2019-03-17T16:45:22.724Z,52.77
2019-03-17T16:47:50.927Z,52.36
2019-03-17T16:50:20.581Z,52.72
2019-03-17T16:52:48.803Z,54.08
2019-03-17T16:55:17.026Z,53.72
2019-03-17T16:57:45.225Z,55.02
2019-03-17T17:00:21.229Z,56.30
2019-03-17T17:02:49.870Z,55.70
2019-03-17T17:05:20.271Z,56.47
2019-03-17T17:07:48.558Z,57.08
2019-03-17T17:10:19.163Z,57.02
2019-03-17T17:12:47.570Z,57.47
2019-03-17T17:15:23.924Z,57.86
2019-03-17T17:17:52.197Z,55.99
2019-03-17T17:20:29.322Z,56.04
2019-03-17T17:22:57.518Z,55.99
2019-03-17T17:25:25.719Z,55.96
2019-03-17T17:27:53.917Z,55.17
2019-03-17T17:30:22.129Z,55.18
2019-03-17T17:32:50.340Z,55.46
2019-03-17T17:35:18.573Z,55.57
2019-03-17T17:37:46.802Z,54.46
2019-03-17T17:40:17.553Z,55.08
2019-03-17T17:42:45.790Z,54.96
2019-03-17T17:45:15.855Z,54.73
2019-03-17T17:47:44.178Z,55.14
2019-03-17T17:50:14.572Z,54.74
2019-03-17T17:52:42.763Z,54.87
2019-03-17T17:55:10.972Z,55.03
2019-03-17T17:57:39.183Z,54.83
2019-03-17T18:00:19.023Z,54.90
2019-03-17T18:02:47.241Z,55.61
2019-03-17T18:05:15.463Z,56.08
2019-03-17T18:07:43.670Z,55.25
2019-03-17T18:10:13.955Z,55.95
2019-03-17T18:12:43.202Z,55.10
2019-03-17T18:15:14.441Z,55.46
2019-03-17T18:17:42.239Z,55.80
2019-03-17T18:20:12.227Z,55.10
2019-03-17T18:22:40.433Z,55.58
2019-03-17T18:25:11.733Z,55.50
2019-03-17T18:27:39.939Z,56.02
2019-03-17T18:30:13.681Z,56.29
2019-03-17T18:32:41.921Z,56.58
2019-03-17T18:35:10.786Z,56.89
2019-03-17T18:37:38.983Z,56.89
2019-03-17T18:40:15.744Z,56.98
2019-03-17T18:42:43.963Z,57.13
2019-03-17T18:45:32.531Z,57.68
2019-03-17T18:48:00.739Z,57.96
2019-03-17T18:50:28.945Z,57.70
2019-03-17T18:52:57.151Z,57.09
2019-03-17T18:55:25.352Z,56.79
2019-03-17T18:57:53.568Z,56.66
2019-03-17T19:00:23.038Z,56.32
2019-03-17T19:02:51.237Z,55.57
2019-03-17T19:05:20.405Z,55.59
2019-03-17T19:07:48.746Z,55.19
2019-03-17T19:10:23.167Z,55.34
2019-03-17T19:12:51.375Z,55.03
2019-03-17T19:15:20.523Z,55.13
2019-03-17T19:17:48.727Z,55.43
2019-03-17T19:20:17.995Z,55.52
2019-03-17T19:22:46.212Z,55.87
2019-03-17T19:25:16.626Z,55.83
2019-03-17T19:27:44.864Z,55.80
2019-03-17T19:30:22.355Z,56.12
2019-03-17T19:32:50.582Z,56.51
2019-03-17T19:35:18.809Z,56.81
2019-03-17T19:37:47.021Z,56.35
2019-03-17T19:40:16.534Z,56.94
2019-03-17T19:42:57.455Z,57.06
2019-03-17T19:45:14.703Z,57.28
2019-03-17T19:47:43.636Z,57.26
2019-03-17T19:50:18.774Z,57.72
2019-03-17T19:52:46.994Z,58.09
2019-03-17T19:55:15.270Z,58.02
2019-03-17T19:57:43.736Z,58.18
2019-03-17T20:00:16.420Z,58.78
2019-03-17T20:02:47.393Z,59.04
2019-03-17T20:05:14.616Z,59.27
2019-03-17T20:07:43.874Z,59.20
2019-03-17T20:10:23.491Z,59.69
2019-03-17T20:12:51.703Z,59.63
2019-03-17T20:15:19.942Z,59.87
2019-03-17T20:17:48.316Z,60.05
2019-03-17T20:20:16.540Z,60.57
2019-03-17T20:22:44.766Z,60.56
2019-03-17T20:25:13.869Z,60.71
2019-03-17T20:27:42.071Z,61.07
2019-03-17T20:30:12.783Z,61.20
2019-03-17T20:32:41.001Z,61.18
2019-03-17T20:35:11.084Z,61.58
2019-03-17T20:37:39.300Z,61.46
2019-03-17T20:40:10.034Z,61.75
2019-03-17T20:42:37.612Z,61.58
2019-03-17T20:45:08.033Z,61.58
2019-03-17T20:47:36.256Z,62.06
2019-03-17T20:50:10.059Z,61.89
2019-03-17T20:52:38.271Z,61.60
2019-03-17T20:55:08.525Z,61.74
2019-03-17T20:57:36.756Z,61.91
2019-03-17T21:00:10.839Z,61.89
2019-03-17T21:02:39.307Z,61.82
2019-03-17T21:05:09.126Z,61.81
2019-03-17T21:07:37.327Z,61.86
2019-03-17T21:10:13.561Z,61.96
2019-03-17T21:12:41.800Z,61.97
2019-03-17T21:15:11.849Z,61.94
2019-03-17T21:17:40.071Z,61.82
2019-03-17T21:20:16.890Z,62.16
2019-03-17T21:22:45.133Z,61.87
2019-03-17T21:25:13.347Z,61.91
2019-03-17T21:27:41.604Z,61.65
2019-03-17T21:30:30.653Z,61.76
2019-03-17T21:32:58.873Z,62.11
2019-03-17T21:35:27.087Z,61.90
2019-03-17T21:37:55.297Z,62.28
2019-03-17T21:40:23.519Z,62.73
2019-03-17T21:42:51.729Z,62.36
2019-03-17T21:45:19.964Z,62.39
2019-03-17T21:47:49.024Z,62.43
2019-03-17T21:50:20.727Z,62.50
2019-03-17T21:52:49.062Z,62.17
2019-03-17T21:55:17.309Z,62.56
2019-03-17T21:57:45.554Z,62.51
2019-03-17T22:00:17.604Z,62.68
2019-03-17T22:02:45.821Z,62.84
2019-03-17T22:05:14.131Z,62.53
2019-03-17T22:07:49.266Z,62.53
2019-03-17T22:10:22.161Z,62.34
2019-03-17T22:12:51.327Z,62.59
2019-03-17T22:15:19.545Z,62.53
2019-03-17T22:17:47.779Z,62.33
2019-03-17T22:20:16.164Z,62.40
2019-03-17T22:22:44.378Z,62.45
2019-03-17T22:25:13.624Z,62.30
2019-03-17T22:27:41.843Z,62.46
2019-03-17T22:30:15.388Z,62.44
2019-03-17T22:32:43.607Z,62.12
2019-03-17T22:35:11.844Z,62.43
2019-03-17T22:37:40.048Z,62.45
2019-03-17T22:40:16.607Z,62.42
2019-03-17T22:42:44.836Z,62.63
2019-03-17T22:45:13.907Z,62.46
2019-03-17T22:47:42.118Z,62.08
2019-03-17T22:50:12.468Z,62.38
2019-03-17T22:52:40.677Z,62.61
2019-03-17T22:55:09.641Z,62.68
2019-03-17T22:57:37.855Z,62.63
2019-03-17T23:00:13.972Z,62.61
2019-03-17T23:02:42.175Z,62.74
2019-03-17T23:05:10.392Z,62.19
2019-03-17T23:07:38.661Z,62.05
2019-03-17T23:10:09.940Z,62.11
2019-03-17T23:12:38.168Z,61.75
2019-03-17T23:15:08.812Z,61.97
2019-03-17T23:17:37.057Z,61.76
2019-03-17T23:20:07.855Z,61.87
2019-03-17T23:22:36.075Z,62.84
2019-03-17T23:25:05.421Z,62.84
2019-03-17T23:27:33.658Z,63.28
2019-03-17T23:30:01.870Z,64.46
2019-03-17T23:32:30.095Z,65.37
2019-03-17T23:34:58.310Z,65.15
2019-03-17T23:37:26.548Z,67.36
2019-03-17T23:39:54.776Z,67.82
2019-03-17T23:42:22.985Z,68.66
2019-03-17T23:44:51.201Z,68.64
2019-03-17T23:47:19.503Z,68.60
2019-03-17T23:49:47.715Z,68.96
2019-03-17T23:52:15.919Z,68.35
2019-03-17T23:54:44.137Z,70.19
2019-03-17T23:57:12.359Z,69.48
2019-03-17T23:59:40.573Z,69.71
